Terminal Aerodrome Forecast
Issued by NWS

Home | Current Version | Previous Version | Text Only | Print | Product List | Glossary On
Versions: 1 2 3 4 5 6 7 8 9 10 11 12 13 14 15 16 17
000
FTUS43 KGRB 182300
TAFATW
TAF
KATW 182337Z 1900/1924 VRB03KT P6SM SCT025 SCT120
      TEMPO 1900/1904 BKN022
     FM190700 17004KT P6SM FEW025 SCT200
     FM191500 20012G20KT P6SM SCT100 BKN250=

USA.gov is the U.S. government's official web portal to all federal, state and local government web resources and services.